Pelagia — PGRQ — position and weather

sailwx.info

Track history (hours):
 
Tides and Currents Weather Stations Pressure Air Temp Water Temp Dewpoint Dewpoint Depression Visibility Wind Speed Wind Dir Waves Ship Positions

Oceanographic research ship Pelagia (Netherlands)

Detailed information on ship capabilities available from University of Delaware's Ocean Information Center and ARCUS's ALIAS (Arctic Logistics Information and Support) project.

Last reported at 2016-Aug-27 11:15 UTC. Time now 2016-Aug-28 05:14 UTC.
Position N 17°23' W 063°18'.

Length 66 m; beam 13 m.

Type: Other ship. MMSI: 244925000.

Date/timePositionNaut miles runAvg speedWind from/ knotsBaromVisibWave heightAir tempDewpointWater temp
2016-Aug-27 11:15N 17°23' W 063°18'8 0.7
2016-Aug-26 23:14N 17°31' W 063°16'1 1.1
2016-Aug-26 22:31N 17°32' W 063°16'11 0.4
2016-Aug-25 17:18N 17°21' W 063°20'7 0.4
2016-Aug-25 01:29N 17°15' W 063°23'52 1.4
2016-Aug-23 12:34N 17°26' W 062°30'0 0.3
2016-Aug-23 11:32N 17°26' W 062°30'0 0.3
2016-Aug-23 10:31N 17°26' W 062°30'1 1.1
2016-Aug-23 09:33N 17°26' W 062°29'3 3.3
2016-Aug-23 08:33N 17°25' W 062°26'2 1.8
2016-Aug-23 07:33N 17°25' W 062°24'1 1.1
2016-Aug-23 06:33N 17°26' W 062°23'1 0.6
2016-Aug-23 05:33N 17°27' W 062°23'1 1.1
2016-Aug-23 04:33N 17°27' W 062°22'1 0.6
2016-Aug-23 03:33N 17°27' W 062°21'1 0.7
2016-Aug-23 02:33N 17°27' W 062°20'1 0.7
2016-Aug-23 01:33N 17°28' W 062°20'2 1.5
2016-Aug-23 00:33N 17°29' W 062°18'1 0.7
2016-Aug-22 23:33N 17°29' W 062°18'0 0.5
2016-Aug-22 22:33N 17°29' W 062°17'1 0.6
2016-Aug-22 21:33N 17°29' W 062°17'4 3.6
2016-Aug-22 20:33N 17°26' W 062°16'1 0.7
2016-Aug-22 19:34N 17°26' W 062°15'4 4.0
2016-Aug-22 18:33N 17°26' W 062°11'9 8.7
2016-Aug-22 17:33N 17°26' W 062°02'1 0.6
2016-Aug-22 16:33N 17°26' W 062°01'5 4.6
2016-Aug-22 15:33N 17°26' W 061°56'9 8.7
2016-Aug-22 14:33N 17°26' W 061°47'8 7.7
2016-Aug-22 13:34N 17°26' W 061°39'1 0.7
2016-Aug-22 12:33N 17°26' W 061°40'1 1.1
2016-Aug-22 11:33N 17°26' W 061°41'0 0.3
2016-Aug-22 10:33N 17°26' W 061°41'2 2.0
2016-Aug-22 09:33N 17°25' W 061°42'1 1.0
2016-Aug-22 08:33N 17°25' W 061°41'1 0.8
2016-Aug-22 07:33N 17°25' W 061°40'1 0.7
2016-Aug-22 06:33N 17°25' W 061°39'1 1.0
2016-Aug-22 05:33N 17°26' W 061°39'1 0.9
2016-Aug-22 04:33N 17°27' W 061°39'1 0.7
2016-Aug-22 03:33N 17°26' W 061°39'1 1.1
2016-Aug-22 02:33N 17°26' W 061°38'0 0.4
2016-Aug-22 01:33N 17°26' W 061°38'1 1.2
2016-Aug-22 00:33N 17°27' W 061°38'1 0.8
2016-Aug-21 23:34N 17°26' W 061°37'0 0.1
2016-Aug-21 22:33N 17°26' W 061°37'0 0.0
2016-Aug-21 21:33N 17°26' W 061°37'0 0.1
2016-Aug-21 20:33N 17°26' W 061°37'4 3.9
2016-Aug-21 19:34N 17°26' W 061°33'0 0.1
2016-Aug-21 18:34N 17°26' W 061°33'0 0.0
2016-Aug-21 17:34N 17°26' W 061°33'2 2.0
2016-Aug-21 16:34N 17°26' W 061°31'9 9.2
2016-Aug-21 15:33N 17°27' W 061°21'9 8.8
2016-Aug-21 14:34N 17°27' W 061°12'9 9.4
2016-Aug-21 13:33N 17°27' W 061°02'79 1.9
2016-Aug-19 20:22N 16°14' W 061°32'0 0.0
2016-Aug-19 19:28N 16°14' W 061°32'0 0.0
2016-Aug-19 15:22N 16°14' W 061°32'0 0.0
2016-Aug-18 18:33N 16°14' W 061°32'0 0.0
2016-Aug-18 15:21N 16°14' W 061°32'0 0.0
2016-Aug-17 20:24N 16°14' W 061°32'0 0.0
2016-Aug-17 19:33N 16°14' W 061°32'0 0.0
2016-Aug-17 18:21N 16°14' W 061°32'0 0.0
2016-Aug-17 17:29N 16°14' W 061°32'0 0.0
2016-Aug-17 15:26N 16°14' W 061°32'0 0.0
2016-Aug-17 14:32N 16°14' W 061°32'  
Track history (hours):
 
Tides and Currents Weather Stations Pressure Air Temp Water Temp Dewpoint Dewpoint Depression Visibility Wind Speed Wind Dir Waves Ship Positions

Oceanographic research ship Pelagia (Netherlands)

Detailed information on ship capabilities available from University of Delaware's Ocean Information Center and ARCUS's ALIAS (Arctic Logistics Information and Support) project.

Last reported at 2016-Aug-27 11:15 UTC. Time now 2016-Aug-28 05:14 UTC.
Position N 17°23' W 063°18'.

Length 66 m; beam 13 m.

Type: Other ship. MMSI: 244925000.

Date/timePositionNaut miles runAvg speedWind from/ knotsBaromVisibWave heightAir tempDewpointWater temp
2016-Aug-27 11:15N 17°23' W 063°18'8 0.7
2016-Aug-26 23:14N 17°31' W 063°16'1 1.1
2016-Aug-26 22:31N 17°32' W 063°16'11 0.4
2016-Aug-25 17:18N 17°21' W 063°20'7 0.4
2016-Aug-25 01:29N 17°15' W 063°23'52 1.4
2016-Aug-23 12:34N 17°26' W 062°30'0 0.3
2016-Aug-23 11:32N 17°26' W 062°30'0 0.3
2016-Aug-23 10:31N 17°26' W 062°30'1 1.1
2016-Aug-23 09:33N 17°26' W 062°29'3 3.3
2016-Aug-23 08:33N 17°25' W 062°26'2 1.8
2016-Aug-23 07:33N 17°25' W 062°24'1 1.1
2016-Aug-23 06:33N 17°26' W 062°23'1 0.6
2016-Aug-23 05:33N 17°27' W 062°23'1 1.1
2016-Aug-23 04:33N 17°27' W 062°22'1 0.6
2016-Aug-23 03:33N 17°27' W 062°21'1 0.7
2016-Aug-23 02:33N 17°27' W 062°20'1 0.7
2016-Aug-23 01:33N 17°28' W 062°20'2 1.5
2016-Aug-23 00:33N 17°29' W 062°18'1 0.7
2016-Aug-22 23:33N 17°29' W 062°18'0 0.5
2016-Aug-22 22:33N 17°29' W 062°17'1 0.6
2016-Aug-22 21:33N 17°29' W 062°17'4 3.6
2016-Aug-22 20:33N 17°26' W 062°16'1 0.7
2016-Aug-22 19:34N 17°26' W 062°15'4 4.0
2016-Aug-22 18:33N 17°26' W 062°11'9 8.7
2016-Aug-22 17:33N 17°26' W 062°02'1 0.6
2016-Aug-22 16:33N 17°26' W 062°01'5 4.6
2016-Aug-22 15:33N 17°26' W 061°56'9 8.7
2016-Aug-22 14:33N 17°26' W 061°47'8 7.7
2016-Aug-22 13:34N 17°26' W 061°39'1 0.7
2016-Aug-22 12:33N 17°26' W 061°40'1 1.1
2016-Aug-22 11:33N 17°26' W 061°41'0 0.3
2016-Aug-22 10:33N 17°26' W 061°41'2 2.0
2016-Aug-22 09:33N 17°25' W 061°42'1 1.0
2016-Aug-22 08:33N 17°25' W 061°41'1 0.8
2016-Aug-22 07:33N 17°25' W 061°40'1 0.7
2016-Aug-22 06:33N 17°25' W 061°39'1 1.0
2016-Aug-22 05:33N 17°26' W 061°39'1 0.9
2016-Aug-22 04:33N 17°27' W 061°39'1 0.7
2016-Aug-22 03:33N 17°26' W 061°39'1 1.1
2016-Aug-22 02:33N 17°26' W 061°38'0 0.4
2016-Aug-22 01:33N 17°26' W 061°38'1 1.2
2016-Aug-22 00:33N 17°27' W 061°38'1 0.8
2016-Aug-21 23:34N 17°26' W 061°37'0 0.1
2016-Aug-21 22:33N 17°26' W 061°37'0 0.0
2016-Aug-21 21:33N 17°26' W 061°37'0 0.1
2016-Aug-21 20:33N 17°26' W 061°37'4 3.9
2016-Aug-21 19:34N 17°26' W 061°33'0 0.1
2016-Aug-21 18:34N 17°26' W 061°33'0 0.0
2016-Aug-21 17:34N 17°26' W 061°33'2 2.0
2016-Aug-21 16:34N 17°26' W 061°31'9 9.2
2016-Aug-21 15:33N 17°27' W 061°21'9 8.8
2016-Aug-21 14:34N 17°27' W 061°12'9 9.4
2016-Aug-21 13:33N 17°27' W 061°02'79 1.9
2016-Aug-19 20:22N 16°14' W 061°32'0 0.0
2016-Aug-19 19:28N 16°14' W 061°32'0 0.0
2016-Aug-19 15:22N 16°14' W 061°32'0 0.0
2016-Aug-18 18:33N 16°14' W 061°32'0 0.0
2016-Aug-18 15:21N 16°14' W 061°32'0 0.0
2016-Aug-17 20:24N 16°14' W 061°32'0 0.0
2016-Aug-17 19:33N 16°14' W 061°32'0 0.0
2016-Aug-17 18:21N 16°14' W 061°32'0 0.0
2016-Aug-17 17:29N 16°14' W 061°32'0 0.0
2016-Aug-17 15:26N 16°14' W 061°32'0 0.0
2016-Aug-17 14:32N 16°14' W 061°32'  

Dump ship's entire track history